Portada
METAR-TAF:

METAR-TAF

Aeroports :

Surat Thani, Tailàndia

latitud: 09-07N, longitud: 099-21E, altitud: 10 m

Observació

L'informe es va fer fa 47 minuts, a les 10:00 UTC
Vent 9 kt del Est/Nord-Est
Temperatura 35°C
Humitat 56%
Pressió 1005 hPa
Visibilitat 10 km o més
Escasses núvols a una alçada de 2000 ft

METAR: VTSB 181000Z 06009KT 9999 FEW020 35/25 Q1005

Hora: 17:47 (10:47 UTC)

Pronòstic

L'informe es va fer fa 5 hores i 47 minuts, a les 05:00 UTC
Pronòstic vàlid del 18 a les 06 UTC al 19 a les 06 UTC
Vent 10 kt del Nord-Est
Visibilitat 10 km o més
Escasses núvols a una alçada de 2000 ft
Evolucionant progressivament
l' 18 a les 13 UTC al 18 a les 15 UTC
Vent 2 kt amb direcció variable
Evolucionant progressivament
l' 19 a les 04 UTC al 19 a les 06 UTC
Vent 10 kt del Nord-Est

TAF: VTSB 180500Z 1806/1906 04010KT 9999 FEW020 BECMG 1813/1815 VRB02KT BECMG 1904/1906 04010KT

Observacions i pronòstics meteorològics de més de 4000 aeroports (METAR i TAF).

Les estacions disponibles són els punts grocs i vermells al mapa.

Posi el ratolí al punt desitjat per veure el nom de l'estació.

Feu clic per veure les observacions i els pronòstics meteorològics.

Per canviar el mapa: feu clic els botons verds amb una creu de color negre per apropar; al botó verd amb un guió per allunyar la imatge; o en les fletxes verdes per a mapes adjacents.


METAR-TAF: